createdAt,value
2018-01-15T00:01:19.933Z,23.73
2018-01-15T00:03:47.521Z,23.97
2018-01-15T00:06:15.164Z,23.50
2018-01-15T00:08:42.760Z,24.30
2018-01-15T00:11:10.355Z,23.70
2018-01-15T00:13:37.969Z,23.27
2018-01-15T00:16:05.545Z,24.03
2018-01-15T00:18:33.921Z,23.73
2018-01-15T00:21:01.528Z,24.43
2018-01-15T00:23:29.920Z,24.30
2018-01-15T00:25:57.506Z,24.13
2018-01-15T00:28:25.088Z,22.47
2018-01-15T00:30:53.531Z,22.97
2018-01-15T00:33:21.127Z,21.27
2018-01-15T00:35:48.763Z,23.27
2018-01-15T00:38:16.377Z,23.80
2018-01-15T00:40:43.972Z,24.00
2018-01-15T00:43:11.572Z,24.73
2018-01-15T00:45:39.946Z,24.87
2018-01-15T00:48:07.574Z,24.40
2018-01-15T00:50:35.144Z,23.80
2018-01-15T00:53:03.538Z,23.50
2018-01-15T00:55:31.122Z,22.77
2018-01-15T00:57:58.713Z,24.10
2018-01-15T01:00:26.279Z,24.70
2018-01-15T01:02:54.828Z,24.07
2018-01-15T01:05:23.162Z,24.40
2018-01-15T01:07:50.787Z,26.53
2018-01-15T01:10:19.122Z,25.60
2018-01-15T01:12:46.731Z,23.73
2018-01-15T01:15:14.313Z,25.37
2018-01-15T01:17:41.903Z,23.87
2018-01-15T01:20:09.525Z,26.93
2018-01-15T01:22:37.108Z,24.63
2018-01-15T01:25:04.743Z,26.13
2018-01-15T01:27:32.308Z,25.47
2018-01-15T01:30:00.694Z,22.23
2018-01-15T01:32:29.056Z,26.33
2018-01-15T01:34:57.433Z,25.30
2018-01-15T01:37:25.010Z,25.20
2018-01-15T01:39:54.263Z,25.97
2018-01-15T01:42:22.329Z,28.43
2018-01-15T01:44:49.950Z,25.07
2018-01-15T01:47:17.520Z,28.27
2018-01-15T01:49:45.092Z,24.60
2018-01-15T01:52:12.683Z,25.90
2018-01-15T01:54:40.259Z,25.60
2018-01-15T01:57:07.869Z,26.50
2018-01-15T01:59:35.475Z,28.87
2018-01-15T02:02:03.080Z,25.67
2018-01-15T02:04:31.410Z,26.83
2018-01-15T02:06:59.009Z,25.80
2018-01-15T02:09:26.592Z,27.90
2018-01-15T02:11:54.200Z,28.80
2018-01-15T02:14:22.464Z,27.93
2018-01-15T02:16:50.080Z,25.00
2018-01-15T02:19:17.662Z,28.00
2018-01-15T02:21:45.268Z,25.40
2018-01-15T02:24:12.872Z,26.57
2018-01-15T02:26:40.469Z,28.00
2018-01-15T02:29:08.855Z,25.67
2018-01-15T02:31:36.475Z,25.93
2018-01-15T02:34:04.118Z,26.03
2018-01-15T02:36:31.704Z,23.50
2018-01-15T02:38:59.343Z,26.00
2018-01-15T02:41:26.950Z,26.63
2018-01-15T02:43:54.580Z,27.40
2018-01-15T02:46:22.911Z,25.60
2018-01-15T02:48:50.537Z,25.07
2018-01-15T02:51:18.133Z,25.27
2018-01-15T02:53:45.705Z,25.13
2018-01-15T02:56:13.337Z,25.87
2018-01-15T02:58:40.907Z,27.87
2018-01-15T03:01:09.278Z,24.20
2018-01-15T03:03:36.850Z,24.37
2018-01-15T03:06:04.482Z,24.90
2018-01-15T03:08:32.847Z,27.10
2018-01-15T03:11:00.479Z,24.03
2018-01-15T03:13:28.829Z,24.57
2018-01-15T03:15:56.433Z,25.27
2018-01-15T03:18:24.022Z,24.70
2018-01-15T03:20:52.465Z,26.10
2018-01-15T03:23:20.057Z,23.83
2018-01-15T03:25:47.686Z,26.37
2018-01-15T03:28:15.264Z,26.00
2018-01-15T03:30:42.874Z,25.47
2018-01-15T03:33:11.209Z,25.60
2018-01-15T03:35:38.782Z,25.90
2018-01-15T03:38:07.170Z,25.70
2018-01-15T03:40:35.521Z,26.33
2018-01-15T03:43:03.135Z,26.30
2018-01-15T03:45:30.728Z,24.83
2018-01-15T03:47:58.345Z,25.20
2018-01-15T03:50:25.939Z,24.20
2018-01-15T03:52:54.843Z,24.50
2018-01-15T03:55:23.791Z,24.87
2018-01-15T03:57:52.783Z,24.33
2018-01-15T04:00:20.365Z,24.53
2018-01-15T04:02:47.960Z,24.43
2018-01-15T04:05:15.555Z,25.20
2018-01-15T04:07:43.175Z,24.60
2018-01-15T04:10:10.801Z,25.27
2018-01-15T04:12:38.370Z,26.40
2018-01-15T04:15:06.730Z,26.20
2018-01-15T04:17:34.330Z,24.27
2018-01-15T04:20:01.946Z,25.47
2018-01-15T04:22:30.306Z,25.67
2018-01-15T04:24:57.932Z,24.33
2018-01-15T04:27:26.276Z,23.03
2018-01-15T04:29:54.903Z,25.17
2018-01-15T04:32:23.825Z,24.23
2018-01-15T04:34:51.457Z,27.83
2018-01-15T04:37:19.042Z,23.70
2018-01-15T04:39:46.628Z,25.33
2018-01-15T04:42:14.256Z,27.30
2018-01-15T04:44:41.849Z,23.37
2018-01-15T04:47:09.479Z,27.50
2018-01-15T04:49:37.832Z,23.07
2018-01-15T04:52:05.462Z,24.07
2018-01-15T04:54:33.844Z,26.70
2018-01-15T04:57:01.440Z,25.57
2018-01-15T04:59:29.813Z,23.83
2018-01-15T05:01:57.415Z,24.27
2018-01-15T05:04:25.025Z,27.23
2018-01-15T05:06:54.702Z,25.30
2018-01-15T05:09:22.353Z,24.13
2018-01-15T05:11:49.959Z,23.33
2018-01-15T05:14:17.574Z,27.80
2018-01-15T05:16:45.171Z,26.50
2018-01-15T05:19:12.792Z,25.63
2018-01-15T05:21:40.372Z,25.23
2018-01-15T05:24:08.752Z,26.17
2018-01-15T05:26:36.332Z,24.93
2018-01-15T05:29:03.938Z,25.10
2018-01-15T05:31:31.542Z,25.70
2018-01-15T05:33:59.161Z,26.00
2018-01-15T05:36:26.726Z,24.43
2018-01-15T05:38:54.351Z,26.20
2018-01-15T05:41:22.391Z,26.80
2018-01-15T05:43:50.000Z,28.60
2018-01-15T05:46:17.611Z,27.23
2018-01-15T05:48:45.196Z,24.83
2018-01-15T05:51:12.801Z,25.80
2018-01-15T05:53:41.157Z,25.20
2018-01-15T05:56:08.758Z,27.27
2018-01-15T05:58:36.350Z,26.53
2018-01-15T06:01:03.954Z,25.20
2018-01-15T06:03:31.540Z,25.77
2018-01-15T06:05:59.911Z,27.10
2018-01-15T06:08:28.283Z,27.20
2018-01-15T06:10:55.889Z,26.23
2018-01-15T06:13:24.269Z,26.87
2018-01-15T06:15:52.667Z,26.60
2018-01-15T06:18:20.253Z,26.97
2018-01-15T06:20:47.872Z,24.53
2018-01-15T06:23:16.463Z,27.00
2018-01-15T06:25:44.063Z,26.33
2018-01-15T06:28:11.633Z,24.80
2018-01-15T06:30:39.262Z,28.93
2018-01-15T06:33:06.838Z,26.73
2018-01-15T06:35:34.431Z,26.73
2018-01-15T06:38:02.060Z,24.80
2018-01-15T06:40:29.633Z,29.50
2018-01-15T06:42:57.256Z,26.37
2018-01-15T06:45:24.846Z,26.30
2018-01-15T06:47:53.751Z,27.50
2018-01-15T06:50:21.329Z,28.13
2018-01-15T06:52:48.916Z,27.40
2018-01-15T06:55:16.505Z,28.40
2018-01-15T06:57:44.123Z,25.30
2018-01-15T07:00:11.700Z,27.27
2018-01-15T07:02:39.301Z,25.47
2018-01-15T07:05:07.663Z,23.63
2018-01-15T07:07:35.297Z,28.50
2018-01-15T07:10:03.656Z,25.90
2018-01-15T07:12:31.254Z,27.00
2018-01-15T07:14:58.876Z,25.87
2018-01-15T07:17:27.216Z,26.47
2018-01-15T07:19:54.840Z,26.10
2018-01-15T07:22:24.059Z,27.27
2018-01-15T07:24:52.304Z,25.83
2018-01-15T07:27:19.913Z,27.63
2018-01-15T07:29:47.520Z,26.63
2018-01-15T07:32:15.088Z,24.83
2018-01-15T07:34:42.692Z,24.17
2018-01-15T07:37:10.281Z,23.73
2018-01-15T07:39:37.905Z,23.37
2018-01-15T07:42:05.510Z,23.53
2018-01-15T07:44:33.101Z,25.30
2018-01-15T07:47:00.725Z,25.23
2018-01-15T07:49:28.338Z,22.97
2018-01-15T07:51:55.941Z,20.83
2018-01-15T07:54:24.691Z,26.33
2018-01-15T07:56:52.351Z,23.80
2018-01-15T07:59:19.951Z,22.37
2018-01-15T08:01:47.548Z,25.60
2018-01-15T08:04:15.146Z,21.90
2018-01-15T08:06:42.765Z,22.73
2018-01-15T08:09:10.352Z,23.10
2018-01-15T08:11:37.963Z,23.00
2018-01-15T08:14:05.554Z,20.20
2018-01-15T08:16:33.133Z,23.37
2018-01-15T08:19:00.766Z,18.93
2018-01-15T08:21:28.355Z,21.97
2018-01-15T08:23:56.743Z,20.20
2018-01-15T08:26:24.342Z,22.17
2018-01-15T08:28:52.359Z,20.80
2018-01-15T08:31:19.945Z,22.30
2018-01-15T08:33:47.572Z,21.07
2018-01-15T08:36:15.197Z,20.27
2018-01-15T08:38:43.598Z,17.77
2018-01-15T08:41:11.979Z,19.50
2018-01-15T08:43:39.626Z,20.53
2018-01-15T08:46:07.214Z,18.87
2018-01-15T08:48:35.779Z,18.20
2018-01-15T08:51:04.157Z,18.87
2018-01-15T08:53:31.756Z,16.70
2018-01-15T08:55:59.403Z,18.07
2018-01-15T08:58:26.991Z,17.53
2018-01-15T09:00:54.638Z,17.23
2018-01-15T09:03:23.269Z,16.43
2018-01-15T09:05:50.865Z,15.80
2018-01-15T09:08:18.444Z,16.40
2018-01-15T09:10:46.056Z,15.53
2018-01-15T09:13:13.667Z,14.30
2018-01-15T09:15:41.254Z,16.00
2018-01-15T09:18:08.826Z,13.27
2018-01-15T09:20:36.437Z,13.23
2018-01-15T09:23:04.764Z,14.40
2018-01-15T09:25:32.350Z,13.97
2018-01-15T09:27:59.966Z,14.00
2018-01-15T09:30:27.550Z,14.70
2018-01-15T09:32:55.154Z,13.03
2018-01-15T09:35:23.609Z,13.43
2018-01-15T09:37:51.260Z,14.93
2018-01-15T09:40:19.594Z,13.27
2018-01-15T09:42:47.215Z,13.13
2018-01-15T09:45:14.795Z,13.00
2018-01-15T09:47:42.395Z,12.67
2018-01-15T09:50:09.960Z,12.60
2018-01-15T09:52:37.590Z,14.87
2018-01-15T09:55:05.940Z,13.90
2018-01-15T09:57:33.531Z,11.67
2018-01-15T10:00:01.095Z,11.77
2018-01-15T10:02:28.714Z,11.60
2018-01-15T10:04:56.309Z,13.60
2018-01-15T10:07:24.766Z,12.30
2018-01-15T10:09:52.404Z,14.70
2018-01-15T10:12:20.007Z,13.97
2018-01-15T10:14:48.392Z,12.90
2018-01-15T10:17:15.995Z,12.93
2018-01-15T10:19:44.388Z,12.90
2018-01-15T10:22:12.750Z,13.40
2018-01-15T10:24:40.379Z,12.37
2018-01-15T10:27:08.748Z,11.63
2018-01-15T10:29:36.373Z,11.93
2018-01-15T10:32:04.708Z,13.33
2018-01-15T10:34:32.278Z,12.10
2018-01-15T10:36:59.913Z,12.90
2018-01-15T10:39:27.483Z,13.13
2018-01-15T10:41:55.104Z,13.93
2018-01-15T10:44:24.626Z,12.80
2018-01-15T10:46:53.373Z,13.40
2018-01-15T10:49:20.958Z,12.50
2018-01-15T10:51:48.577Z,12.07
2018-01-15T10:54:16.177Z,10.87
2018-01-15T10:56:43.818Z,12.10
2018-01-15T10:59:11.390Z,12.63
2018-01-15T11:01:38.996Z,12.67
2018-01-15T11:04:06.573Z,13.83
2018-01-15T11:06:34.175Z,19.30
2018-01-15T11:09:01.746Z,11.73
2018-01-15T11:11:29.372Z,29.40
2018-01-15T11:13:56.971Z,14.83
2018-01-15T11:16:24.631Z,11.93
2018-01-15T11:18:53.301Z,13.00
2018-01-15T11:21:20.900Z,13.50
2018-01-15T11:23:48.487Z,12.20
2018-01-15T11:26:16.066Z,12.23
2018-01-15T11:28:43.662Z,12.73
2018-01-15T11:31:11.263Z,13.33
2018-01-15T11:33:38.883Z,12.00
2018-01-15T11:36:07.245Z,12.77
2018-01-15T11:38:34.848Z,13.33
2018-01-15T11:41:02.426Z,14.27
2018-01-15T11:43:30.011Z,12.60
2018-01-15T11:45:57.612Z,12.43
2018-01-15T11:48:25.246Z,12.13
2018-01-15T11:50:52.811Z,11.63
2018-01-15T11:53:20.398Z,13.10
2018-01-15T11:55:48.028Z,13.50
2018-01-15T11:58:15.632Z,12.93
2018-01-15T12:00:43.234Z,12.90
2018-01-15T12:03:11.582Z,12.50
2018-01-15T12:05:39.179Z,12.30
2018-01-15T12:08:06.760Z,11.63
2018-01-15T12:10:34.387Z,12.17
2018-01-15T12:13:02.729Z,12.97
2018-01-15T12:15:30.342Z,12.33
2018-01-15T12:17:57.925Z,12.00
2018-01-15T12:20:25.542Z,12.67
2018-01-15T12:22:54.905Z,14.07
2018-01-15T12:25:24.088Z,11.80
2018-01-15T12:27:53.412Z,12.60
2018-01-15T12:30:22.873Z,13.17
2018-01-15T12:32:50.527Z,12.00
2018-01-15T12:35:18.878Z,12.63
2018-01-15T12:37:46.511Z,12.97
2018-01-15T12:40:14.135Z,11.90
2018-01-15T12:42:41.753Z,12.47
2018-01-15T12:45:09.360Z,12.60
2018-01-15T12:47:36.962Z,13.40
2018-01-15T12:50:05.309Z,15.60
2018-01-15T12:52:32.922Z,17.47
2018-01-15T12:55:00.508Z,13.27
2018-01-15T12:57:28.114Z,17.47
2018-01-15T12:59:55.688Z,13.27
2018-01-15T13:02:24.456Z,14.77
2018-01-15T13:04:52.673Z,15.70
2018-01-15T13:07:32.218Z,12.13
2018-01-15T13:09:59.802Z,14.70
2018-01-15T13:12:27.408Z,12.03
2018-01-15T13:14:54.968Z,15.53
2018-01-15T13:17:23.523Z,12.73
2018-01-15T13:19:51.086Z,12.73
2018-01-15T13:22:18.678Z,18.00
2018-01-15T13:24:46.253Z,12.40
2018-01-15T13:27:13.830Z,13.13
2018-01-15T13:29:42.210Z,11.00
2018-01-15T13:32:09.817Z,10.90
2018-01-15T13:34:37.403Z,11.10
2018-01-15T13:37:05.035Z,10.77
2018-01-15T13:39:33.459Z,11.43
2018-01-15T13:42:01.063Z,12.20
2018-01-15T13:44:28.684Z,13.70
2018-01-15T13:46:56.261Z,12.60
2018-01-15T13:49:24.495Z,12.00
2018-01-15T13:51:52.846Z,11.37
2018-01-15T13:54:20.425Z,13.20
2018-01-15T13:56:48.034Z,12.60
2018-01-15T13:59:15.626Z,12.37
2018-01-15T14:01:43.216Z,35.07
2018-01-15T14:04:10.812Z,24.03
2018-01-15T14:06:38.423Z,21.00
2018-01-15T14:09:06.018Z,20.50
2018-01-15T14:11:33.649Z,17.03
2018-01-15T14:14:01.248Z,19.17
2018-01-15T14:16:28.856Z,19.37
2018-01-15T14:18:57.202Z,16.70
2018-01-15T14:21:24.858Z,15.77
2018-01-15T14:23:53.801Z,15.27
2018-01-15T14:26:21.419Z,15.20
2018-01-15T14:28:49.017Z,15.57
2018-01-15T14:31:17.411Z,16.30
2018-01-15T14:33:44.990Z,16.23
2018-01-15T14:36:12.616Z,18.27
2018-01-15T14:38:40.198Z,17.90
2018-01-15T14:41:07.783Z,16.47
2018-01-15T14:43:35.375Z,13.90
2018-01-15T14:46:02.958Z,15.77
2018-01-15T14:48:30.575Z,12.70
2018-01-15T14:50:58.182Z,12.97
2018-01-15T14:53:25.804Z,15.80
2018-01-15T14:55:54.623Z,14.17
2018-01-15T14:58:23.231Z,14.50
2018-01-15T15:00:50.790Z,14.17
2018-01-15T15:03:19.172Z,12.10
2018-01-15T15:05:46.768Z,14.30
2018-01-15T15:08:14.382Z,14.30
2018-01-15T15:10:41.974Z,13.50
2018-01-15T15:13:09.687Z,15.67
2018-01-15T15:15:37.294Z,13.20
2018-01-15T15:18:04.908Z,16.50
2018-01-15T15:20:34.276Z,13.70
2018-01-15T15:23:01.880Z,15.73
2018-01-15T15:25:29.462Z,13.67
2018-01-15T15:27:57.068Z,15.37
2018-01-15T15:30:24.688Z,15.80
2018-01-15T15:32:53.290Z,12.70
2018-01-15T15:35:22.322Z,14.33
2018-01-15T15:37:49.901Z,13.50
2018-01-15T15:40:17.500Z,13.27
2018-01-15T15:42:45.635Z,12.07
2018-01-15T15:45:13.286Z,14.53
2018-01-15T15:47:40.872Z,11.40
2018-01-15T15:50:08.512Z,12.97
2018-01-15T15:52:36.097Z,12.80
2018-01-15T15:55:03.693Z,12.23
2018-01-15T15:57:32.035Z,11.80
2018-01-15T15:59:59.637Z,13.57
2018-01-15T16:02:27.213Z,13.00
2018-01-15T16:04:54.798Z,12.63
2018-01-15T16:07:23.103Z,14.30
2018-01-15T16:09:50.672Z,12.57
2018-01-15T16:12:18.260Z,13.07
2018-01-15T16:14:45.833Z,13.67
2018-01-15T16:17:13.441Z,12.13
2018-01-15T16:19:41.020Z,14.10
2018-01-15T16:22:20.540Z,14.67
2018-01-15T16:24:48.866Z,13.73
2018-01-15T16:27:16.457Z,12.80
2018-01-15T16:29:44.042Z,13.27
2018-01-15T16:32:11.645Z,13.30
2018-01-15T16:34:39.218Z,13.10
2018-01-15T16:37:06.798Z,12.87
2018-01-15T16:39:34.395Z,12.80
2018-01-15T16:42:01.973Z,13.20
2018-01-15T16:44:29.572Z,13.80
2018-01-15T16:46:57.155Z,11.90
2018-01-15T16:49:24.759Z,12.60
2018-01-15T16:51:53.314Z,13.90
2018-01-15T16:54:20.904Z,13.23
2018-01-15T16:56:48.488Z,13.40
2018-01-15T16:59:16.085Z,13.03
2018-01-15T17:01:43.668Z,12.83
2018-01-15T17:04:11.269Z,12.90
2018-01-15T17:06:38.921Z,13.73
2018-01-15T17:09:06.576Z,19.40
2018-01-15T17:11:34.131Z,15.00
2018-01-15T17:14:01.737Z,14.67
2018-01-15T17:16:29.547Z,13.30
2018-01-15T17:18:58.010Z,12.00
2018-01-15T17:21:25.599Z,14.43
2018-01-15T17:23:55.269Z,13.30
2018-01-15T17:26:24.875Z,12.90
2018-01-15T17:28:53.555Z,13.23
2018-01-15T17:31:21.161Z,13.50
2018-01-15T17:33:48.718Z,13.40
2018-01-15T17:36:16.322Z,12.10
2018-01-15T17:38:43.888Z,15.67
2018-01-15T17:41:11.497Z,15.97
2018-01-15T17:43:39.054Z,13.87
2018-01-15T17:46:06.650Z,13.03
2018-01-15T17:48:34.414Z,14.00
2018-01-15T17:51:02.101Z,13.57
2018-01-15T17:53:29.696Z,13.87
2018-01-15T17:55:57.285Z,13.30
2018-01-15T17:58:24.889Z,15.00
2018-01-15T18:00:53.398Z,13.47
2018-01-15T18:03:20.996Z,12.60
2018-01-15T18:05:48.701Z,13.50
2018-01-15T18:08:16.301Z,13.97
2018-01-15T18:10:44.631Z,12.97
2018-01-15T18:13:12.223Z,12.77
2018-01-15T18:15:40.880Z,14.23
2018-01-15T18:18:08.920Z,15.60
2018-01-15T18:20:36.494Z,12.50
2018-01-15T18:23:04.944Z,12.00
2018-01-15T18:25:32.528Z,14.43
2018-01-15T18:28:00.130Z,15.10
2018-01-15T18:30:27.710Z,14.60
2018-01-15T18:32:55.469Z,12.70
2018-01-15T18:35:24.733Z,14.30
2018-01-15T18:37:54.189Z,13.80
2018-01-15T18:40:23.622Z,14.70
2018-01-15T18:42:52.392Z,13.13
2018-01-15T18:45:19.974Z,12.97
2018-01-15T18:47:47.575Z,14.80
2018-01-15T18:50:15.196Z,14.10
2018-01-15T18:52:42.774Z,14.90
2018-01-15T18:55:11.154Z,12.77
2018-01-15T18:57:38.755Z,14.80
2018-01-15T19:00:08.135Z,13.80
2018-01-15T19:02:35.717Z,13.60
2018-01-15T19:05:03.319Z,14.80
2018-01-15T19:07:30.897Z,13.70
2018-01-15T19:09:58.497Z,14.77
2018-01-15T19:12:26.080Z,13.13
2018-01-15T19:14:55.026Z,14.40
2018-01-15T19:17:23.680Z,15.10
2018-01-15T19:19:51.279Z,14.93
2018-01-15T19:22:18.869Z,14.60
2018-01-15T19:24:46.464Z,14.80
2018-01-15T19:27:14.088Z,13.80
2018-01-15T19:29:41.742Z,13.30
2018-01-15T19:32:09.392Z,14.50
2018-01-15T19:34:42.820Z,14.73
2018-01-15T19:37:10.416Z,14.53
2018-01-15T19:39:37.998Z,15.57
2018-01-15T19:42:10.333Z,13.10
2018-01-15T19:44:44.419Z,16.60
2018-01-15T19:47:17.737Z,13.03
2018-01-15T19:49:51.090Z,16.37
2018-01-15T19:52:24.385Z,15.43
2018-01-15T19:54:57.718Z,15.77
2018-01-15T20:00:35.211Z,15.77
2018-01-15T20:03:08.387Z,14.13
2018-01-15T20:05:41.718Z,16.50
2018-01-15T20:08:15.034Z,15.03
2018-01-15T20:10:59.282Z,14.83
2018-01-15T20:13:27.718Z,15.47
2018-01-15T20:15:56.102Z,13.70
2018-01-15T20:18:25.009Z,13.60
2018-01-15T20:20:53.644Z,13.33
2018-01-15T20:23:21.279Z,14.50
2018-01-15T20:25:48.898Z,15.90
2018-01-15T20:28:16.487Z,13.00
2018-01-15T20:30:45.100Z,12.60
2018-01-15T20:33:12.695Z,12.37
2018-01-15T20:35:40.311Z,13.37
2018-01-15T20:38:08.652Z,12.90
2018-01-15T20:40:36.262Z,14.47
2018-01-15T20:43:03.855Z,14.80
2018-01-15T20:45:31.468Z,13.77
2018-01-15T20:47:59.829Z,13.70
2018-01-15T20:50:27.480Z,12.80
2018-01-15T20:52:55.056Z,13.20
2018-01-15T20:55:23.746Z,13.77
2018-01-15T20:57:53.312Z,14.10
2018-01-15T21:00:20.906Z,13.40
2018-01-15T21:02:48.583Z,11.90
2018-01-15T21:05:16.383Z,13.77
2018-01-15T21:07:44.034Z,14.87
2018-01-15T21:10:12.825Z,13.90
2018-01-15T21:12:40.676Z,13.27
2018-01-15T21:15:08.259Z,13.53
2018-01-15T21:17:35.861Z,12.77
2018-01-15T21:20:03.511Z,13.70
2018-01-15T21:22:31.138Z,13.00
2018-01-15T21:24:59.499Z,14.27
2018-01-15T21:27:27.102Z,12.43
2018-01-15T21:29:54.695Z,14.50
2018-01-15T21:32:23.498Z,12.90
2018-01-15T21:34:51.078Z,14.70
2018-01-15T21:37:18.668Z,13.67
2018-01-15T21:39:46.284Z,15.40
2018-01-15T21:42:13.864Z,15.20
2018-01-15T21:44:41.474Z,14.40
2018-01-15T21:47:09.073Z,16.40
2018-01-15T21:49:37.462Z,11.77
2018-01-15T21:52:05.091Z,15.07
2018-01-15T21:54:32.681Z,12.60
2018-01-15T21:57:00.266Z,12.33
2018-01-15T21:59:28.177Z,14.37
2018-01-15T22:01:55.753Z,15.20
2018-01-15T22:04:24.581Z,14.97
2018-01-15T22:06:53.374Z,15.83
2018-01-15T22:09:20.996Z,13.07
2018-01-15T22:11:48.663Z,12.33
2018-01-15T22:14:16.272Z,13.93
2018-01-15T22:16:43.896Z,14.53
2018-01-15T22:19:12.244Z,13.00
2018-01-15T22:21:39.878Z,14.47
2018-01-15T22:24:08.230Z,13.40
2018-01-15T22:26:35.967Z,13.80
2018-01-15T22:29:03.564Z,14.00
2018-01-15T22:31:31.178Z,13.80
2018-01-15T22:33:58.762Z,15.77
2018-01-15T22:36:26.384Z,14.30
2018-01-15T22:38:54.333Z,14.67
2018-01-15T22:41:22.518Z,13.23
2018-01-15T22:43:50.106Z,13.10
2018-01-15T22:46:17.694Z,14.30
2018-01-15T22:48:45.280Z,13.30
2018-01-15T22:51:12.901Z,12.53
2018-01-15T22:53:40.506Z,13.80
2018-01-15T22:56:08.115Z,13.97
2018-01-15T22:58:35.718Z,13.20
2018-01-15T23:01:03.332Z,13.80
2018-01-15T23:03:30.901Z,12.90
2018-01-15T23:05:58.510Z,11.50
2018-01-15T23:08:26.101Z,14.33
2018-01-15T23:10:55.067Z,12.90
2018-01-15T23:13:23.725Z,12.30
2018-01-15T23:15:51.328Z,12.30
2018-01-15T23:18:18.949Z,14.13
2018-01-15T23:20:46.545Z,12.40
2018-01-15T23:23:14.168Z,13.63
2018-01-15T23:25:41.755Z,13.50
2018-01-15T23:28:09.355Z,13.50
2018-01-15T23:30:38.568Z,13.10
2018-01-15T23:33:06.186Z,14.20
2018-01-15T23:35:33.783Z,14.00
2018-01-15T23:38:01.449Z,12.67
2018-01-15T23:40:29.810Z,13.43
2018-01-15T23:42:57.435Z,14.00
2018-01-15T23:45:25.822Z,15.37
2018-01-15T23:47:54.769Z,13.70
2018-01-15T23:50:24.077Z,13.50
2018-01-15T23:52:52.400Z,13.70
2018-01-15T23:55:19.981Z,12.43
2018-01-15T23:57:47.604Z,13.33
